SBOSBO PMO / LICJ
Speedbird OnlineSpeedbird Online PMO / LICJ

Falcone–Borsellino Airport
05:58 8°C

Location Palermo, Italy
Latitude: 38.175999
Longitude: 13.091
Web Airport Website | Wikipedia
Altitude 20 Meter / 65 Feet
Distance 1,794 KM / 1,115 Miles
from London.
Time Zone UTC +1 hours (Europe/Rome)
Codes IATA: PMO
ICAO: LICJ
Currency £1 equals EUR 1.14
Runways
RunwayLength (m)Surface
022074Asphalt
073326Asphalt
202074Asphalt
253326Asphalt
Radio
TypeDescriptionFrequency
APPAPP120.2
GNDRAISI GND121.625
TWRRAISI TWR119.05
Live ATC
METAR LICJ 290420Z 17004KT CAVOK 08/04 Q1015
TAF TAF LICJ 282300Z 2900/2924 VRB06KT 9999 FEW030
Weather As Of 29 Jan 2023 05:58
Description Clear sky
Wind 7 km/h from South (170°)
Cloud Cover 0%
Precipitation Rain: none, Snow: none
Sunrise 07:15
Sunset 17:25
Lounges Sala VIP GESAP (Temporarily Closed), Main Terminal



Support Speedbird Online

© 2017-2023 Speedbird Online